createdAt,value
2024-02-19T00:02:24.042Z,962.66
2024-02-19T00:17:26.150Z,962.84
2024-02-19T00:32:28.215Z,962.84
2024-02-19T00:47:30.417Z,962.83
2024-02-19T01:02:32.487Z,962.87
2024-02-19T01:17:34.501Z,962.88
2024-02-19T01:32:36.615Z,962.96
2024-02-19T01:47:38.732Z,962.97
2024-02-19T02:02:40.816Z,963.08
2024-02-19T02:17:42.860Z,963.05
2024-02-19T02:32:44.885Z,963.01
2024-02-19T02:47:46.969Z,963.08
2024-02-19T03:02:49.057Z,962.99
2024-02-19T03:17:51.061Z,963.14
2024-02-19T03:32:53.224Z,963.34
2024-02-19T03:47:55.505Z,963.41
2024-02-19T04:02:57.692Z,963.43
2024-02-19T04:17:59.904Z,963.49
2024-02-19T04:33:02.203Z,963.54
2024-02-19T04:48:04.456Z,963.65
2024-02-19T05:03:06.445Z,963.56
2024-02-19T05:18:08.672Z,963.59
2024-02-19T05:33:11.940Z,963.53
2024-02-19T05:48:14.426Z,963.58
2024-02-19T06:03:16.540Z,963.64
2024-02-19T06:18:18.622Z,963.95
2024-02-19T06:33:20.685Z,964.24
2024-02-19T06:48:22.772Z,964.4
2024-02-19T07:03:24.792Z,964.4
2024-02-19T07:18:26.929Z,964.39
2024-02-19T07:33:29.302Z,964.43
2024-02-19T07:48:31.536Z,964.36
2024-02-19T08:03:33.753Z,964.51
2024-02-19T08:18:35.886Z,964.58
2024-02-19T08:33:38.202Z,964.5
2024-02-19T08:48:40.270Z,964.54
2024-02-19T09:03:42.393Z,964.52
2024-02-19T09:18:44.640Z,964.45
2024-02-19T09:33:46.693Z,964.39
2024-02-19T09:48:48.957Z,964.31
2024-02-19T10:03:51.087Z,964.29
2024-02-19T10:18:53.213Z,964.04
2024-02-19T10:33:55.961Z,963.9
2024-02-19T10:48:58.555Z,963.7
2024-02-19T11:04:00.655Z,963.48
2024-02-19T11:19:02.752Z,963.34
2024-02-19T11:34:04.968Z,963.29
2024-02-19T11:49:07.070Z,963.41
2024-02-19T12:04:09.244Z,963.46
2024-02-19T12:19:11.366Z,963.54
2024-02-19T12:34:13.477Z,963.63
2024-02-19T12:49:15.731Z,963.79
2024-02-19T13:04:17.869Z,963.53
2024-02-19T13:19:19.981Z,963.28
2024-02-19T13:34:22.230Z,963.01
2024-02-19T13:49:24.885Z,962.49
2024-02-19T14:04:27.175Z,962.48
2024-02-19T14:19:29.312Z,962.49
2024-02-19T14:34:31.374Z,962.49
2024-02-19T14:49:33.605Z,962.56
2024-02-19T15:04:35.827Z,962.68
2024-02-19T15:19:37.954Z,962.99
2024-02-19T15:34:40.107Z,962.93
2024-02-19T15:49:42.287Z,962.79
2024-02-19T16:04:44.510Z,962.69
2024-02-19T16:19:46.694Z,962.36
2024-02-19T16:34:48.845Z,962.6
2024-02-19T16:49:51.034Z,962.73
2024-02-19T17:04:53.763Z,962.67
2024-02-19T17:19:56.073Z,962.29
2024-02-19T17:34:58.218Z,961.9
2024-02-19T17:50:00.567Z,961.85
2024-02-19T18:05:02.614Z,961.98
2024-02-19T18:20:04.753Z,961.97
2024-02-19T18:35:06.865Z,962.04
2024-02-19T18:50:09.064Z,961.84
2024-02-19T19:05:11.256Z,961.54
2024-02-19T19:20:13.751Z,961.37
2024-02-19T19:35:16.106Z,961.15
2024-02-19T19:50:18.308Z,961.04
2024-02-19T20:05:20.365Z,960.96
2024-02-19T20:20:22.422Z,960.74
2024-02-19T20:35:24.512Z,960.47
2024-02-19T20:50:26.514Z,960.32
2024-02-19T21:05:28.544Z,959.99
2024-02-19T21:20:30.751Z,959.78
2024-02-19T21:35:32.951Z,959.66
2024-02-19T21:50:35.014Z,959.52
2024-02-19T22:05:37.149Z,959.49
2024-02-19T22:20:39.340Z,959.49
2024-02-19T22:35:41.491Z,959.52
2024-02-19T22:50:43.682Z,959.35
2024-02-19T23:05:45.920Z,959.08
2024-02-19T23:20:47.987Z,959.13
2024-02-19T23:35:50.149Z,958.93
2024-02-19T23:50:52.249Z,958.83
